Time;durP1;ratioP1;P1;durP2;ratioP2;P2;SDS_P1;SDS_P2;PMS_P1;PMS_P2;Temp;Humidity;BMP_temperature;BMP_pressure;BME280_temperature;BME280_humidity;BME280_pressure;Samples;Min_cycle;Max_cycle;Signal;HPM_P1;HPM_P2
2023/06/15 00:01:47;;;;;;;8.80;2.37;;;16.60;22.70;;;;;;5984134;24;20502;-67
2023/06/15 00:04:15;;;;;;;8.80;2.70;;;16.40;23.80;;;;;;5983442;24;20443;-67
2023/06/15 00:06:41;;;;;;;6.07;3.43;;;16.40;24.40;;;;;;5983445;24;20442;-67
2023/06/15 00:09:10;;;;;;;5.10;2.50;;;16.30;24.40;;;;;;5983802;24;20404;-67
2023/06/15 00:11:37;;;;;;;5.70;2.80;;;16.10;24.30;;;;;;5984031;24;20419;-67
2023/06/15 00:14:03;;;;;;;7.20;2.97;;;16.10;25.50;;;;;;5983473;24;20425;-67
2023/06/15 00:16:31;;;;;;;6.50;3.40;;;16.00;27.90;;;;;;5983685;24;20429;-67
2023/06/15 00:18:58;;;;;;;6.30;3.00;;;15.70;31.30;;;;;;5983346;24;20983;-67
2023/06/15 00:21:26;;;;;;;6.80;3.50;;;15.50;33.20;;;;;;5983635;24;20430;-67
2023/06/15 00:23:53;;;;;;;6.70;3.13;;;15.30;34.60;;;;;;5982933;24;20988;-67
2023/06/15 00:26:21;;;;;;;8.50;3.67;;;15.20;37.40;;;;;;5983729;24;20403;-67
2023/06/15 00:28:48;;;;;;;9.10;2.80;;;15.00;38.70;;;;;;5983308;24;20416;-67
2023/06/15 00:31:15;;;;;;;8.33;3.77;;;14.90;40.50;;;;;;5983569;24;20450;-67
2023/06/15 00:33:42;;;;;;;7.10;3.60;;;14.70;40.70;;;;;;5983096;24;20416;-67
2023/06/15 00:36:12;;;;;;;6.33;3.67;;;14.70;42.70;;;;;;5983456;24;20454;-67
2023/06/15 00:38:38;;;;;;;5.80;3.10;;;14.60;43.20;;;;;;5983420;24;20730;-67
2023/06/15 00:41:05;;;;;;;7.90;3.20;;;14.60;44.90;;;;;;5983373;24;20498;-67
2023/06/15 00:43:35;;;;;;;7.13;3.93;;;14.60;46.40;;;;;;5982722;24;20422;-67
2023/06/15 00:46:02;;;;;;;6.07;3.20;;;14.50;48.10;;;;;;5983287;24;20829;-67
2023/06/15 00:48:30;;;;;;;6.63;3.50;;;14.30;47.90;;;;;;5983409;24;20751;-67
2023/06/15 00:50:57;;;;;;;8.93;3.70;;;14.20;52.20;;;;;;5983595;24;20419;-68
2023/06/15 00:53:25;;;;;;;6.20;3.50;;;14.00;54.90;;;;;;5982879;24;20513;-67
2023/06/15 00:55:52;;;;;;;7.87;3.60;;;13.80;60.70;;;;;;5982956;24;20422;-67
2023/06/15 00:58:20;;;;;;;6.60;3.40;;;13.60;64.30;;;;;;5983303;24;20506;-68
2023/06/15 01:00:49;;;;;;;8.17;4.10;;;13.50;68.10;;;;;;5983547;24;20423;-67
2023/06/15 01:03:20;;;;;;;7.13;3.60;;;13.30;70.50;;;;;;5982774;24;20426;-67
2023/06/15 01:05:47;;;;;;;9.73;3.70;;;13.10;73.40;;;;;;5983194;24;20427;-67
2023/06/15 01:08:15;;;;;;;8.10;4.97;;;13.10;77.20;;;;;;5982754;24;20445;-67
2023/06/15 01:10:43;;;;;;;7.60;4.57;;;13.00;80.50;;;;;;5983565;24;20763;-67
2023/06/15 01:13:12;;;;;;;7.40;4.00;;;13.00;79.70;;;;;;5982727;24;20423;-67
2023/06/15 01:15:39;;;;;;;8.53;4.30;;;12.90;81.80;;;;;;5983338;24;20425;-67
2023/06/15 01:18:09;;;;;;;6.80;4.40;;;12.80;84.50;;;;;;5983153;24;20426;-66
2023/06/15 01:20:39;;;;;;;7.73;4.83;;;12.80;87.20;;;;;;5982926;24;20889;-67
2023/06/15 01:23:22;;;;;;;6.50;4.60;;;12.70;88.40;;;;;;5982906;24;20415;-66
2023/06/15 01:26:06;;;;;;;7.77;5.37;;;12.60;90.40;;;;;;5982786;24;20533;-67
2023/06/15 01:28:35;;;;;;;7.20;5.00;;;12.60;92.00;;;;;;5982699;24;20407;-66
2023/06/15 01:31:02;;;;;;;12.47;5.83;;;12.50;92.00;;;;;;5982980;24;20463;-67
2023/06/15 01:33:31;;;;;;;7.93;6.17;;;12.40;92.90;;;;;;5981125;24;20490;-67
2023/06/15 01:35:58;;;;;;;8.50;5.23;;;12.30;95.30;;;;;;5983217;24;20417;-67
2023/06/15 01:38:29;;;;;;;8.40;6.07;;;12.40;95.30;;;;;;5982850;24;20426;-67
2023/06/15 01:40:57;;;;;;;13.00;5.10;;;12.40;94.60;;;;;;5983046;24;20742;-67
2023/06/15 01:43:29;;;;;;;9.20;6.00;;;12.40;95.30;;;;;;5982872;24;20426;-66
2023/06/15 01:45:57;;;;;;;8.00;6.27;;;12.40;96.20;;;;;;5982451;24;20482;-67
2023/06/15 01:48:26;;;;;;;7.97;6.10;;;12.30;96.60;;;;;;5982774;24;20425;-66
2023/06/15 01:50:54;;;;;;;8.97;5.70;;;12.20;97.00;;;;;;5983153;24;20426;-67
2023/06/15 01:53:21;;;;;;;8.47;6.70;;;12.20;98.40;;;;;;5982251;24;20428;-67
2023/06/15 01:55:48;;;;;;;11.17;7.30;;;12.20;98.50;;;;;;5983163;24;20529;-67
2023/06/15 01:58:15;;;;;;;7.47;6.10;;;12.20;98.70;;;;;;5982416;24;20505;-66
2023/06/15 02:00:45;;;;;;;10.77;6.50;;;12.20;98.90;;;;;;5982442;24;20915;-67
2023/06/15 02:03:12;;;;;;;9.10;7.80;;;12.20;98.50;;;;;;5981995;24;20453;-66
2023/06/15 02:05:40;;;;;;;10.47;9.63;;;12.20;98.80;;;;;;5982806;24;20442;-67
2023/06/15 02:08:07;;;;;;;9.23;8.33;;;12.20;99.90;;;;;;5982319;24;21038;-66
2023/06/15 02:10:34;;;;;;;12.50;11.40;;;12.10;99.90;;;;;;5983103;24;20505;-67
2023/06/15 02:13:01;;;;;;;14.20;8.37;;;12.00;99.90;;;;;;5981825;24;20422;-66
2023/06/15 02:15:28;;;;;;;10.57;8.73;;;12.00;99.90;;;;;;5982617;24;20499;-66
2023/06/15 02:18:01;;;;;;;11.93;11.03;;;12.00;99.90;;;;;;5982548;24;20427;-66
2023/06/15 02:20:28;;;;;;;13.40;12.40;;;11.90;99.90;;;;;;5982770;24;20788;-67
2023/06/15 02:22:57;;;;;;;18.17;16.77;;;12.00;99.90;;;;;;5982161;24;21021;-66
2023/06/15 02:25:25;;;;;;;16.37;15.20;;;12.00;99.90;;;;;;5982310;24;20450;-66
2023/06/15 02:27:52;;;;;;;18.50;17.30;;;11.90;99.90;;;;;;5982615;24;20422;-66
2023/06/15 02:30:19;;;;;;;18.33;17.23;;;11.90;99.90;;;;;;5982364;24;20429;-66
2023/06/15 02:32:48;;;;;;;20.90;19.60;;;11.90;99.90;;;;;;5982356;24;20422;-67
2023/06/15 02:35:16;;;;;;;24.80;23.33;;;11.90;99.90;;;;;;5982478;24;20442;-63
2023/06/15 02:37:43;;;;;;;22.67;21.27;;;11.90;99.90;;;;;;5981898;24;20476;-63
2023/06/15 02:40:11;;;;;;;14.80;13.37;;;11.90;99.90;;;;;;5982357;24;20502;-63
2023/06/15 02:42:39;;;;;;;14.30;13.33;;;11.80;99.90;;;;;;5981915;24;20421;-63
2023/06/15 02:45:08;;;;;;;23.30;21.70;;;11.70;99.90;;;;;;5977937;24;20844;-63
2023/06/15 02:47:36;;;;;;;39.70;37.70;;;11.60;99.90;;;;;;5982248;24;20429;-63
2023/06/15 02:50:03;;;;;;;27.40;25.40;;;11.60;99.90;;;;;;5982075;24;20454;-63
2023/06/15 02:52:31;;;;;;;44.20;42.17;;;11.50;99.90;;;;;;5982323;24;20474;-63
2023/06/15 02:54:58;;;;;;;50.10;47.97;;;11.50;99.90;;;;;;5981468;24;20454;-63
2023/06/15 02:57:26;;;;;;;129.60;124.97;;;11.50;99.90;;;;;;5982481;24;20423;-63
2023/06/15 02:59:53;;;;;;;125.27;120.83;;;11.50;99.90;;;;;;5981707;24;20509;-63
2023/06/15 03:02:21;;;;;;;181.13;175.03;;;11.40;99.90;;;;;;5982529;24;20501;-63
2023/06/15 03:04:48;;;;;;;176.63;170.63;;;11.50;99.90;;;;;;5981972;24;20422;-63
2023/06/15 03:07:16;;;;;;;149.37;144.13;;;11.50;99.90;;;;;;5982517;24;20433;-63
2023/06/15 03:09:47;;;;;;;130.70;126.20;;;11.50;99.90;;;;;;5982382;24;20418;-63
2023/06/15 03:12:14;;;;;;;96.30;92.73;;;11.40;99.90;;;;;;5982081;24;20814;-65
2023/06/15 03:14:44;;;;;;;97.47;93.97;;;11.40;99.90;;;;;;5981388;24;20505;-63
2023/06/15 03:17:12;;;;;;;88.33;85.03;;;11.30;99.90;;;;;;5982211;24;20490;-63
2023/06/15 03:19:39;;;;;;;128.67;124.17;;;11.30;99.90;;;;;;5981929;24;20906;-63
2023/06/15 03:22:09;;;;;;;125.87;121.23;;;11.30;99.90;;;;;;5982059;24;20425;-63
2023/06/15 03:24:36;;;;;;;140.97;135.63;;;11.30;99.90;;;;;;5981554;24;20431;-63
2023/06/15 03:27:06;;;;;;;165.90;160.23;;;11.30;99.90;;;;;;5981506;24;20532;-63
2023/06/15 03:29:36;;;;;;;122.30;118.00;;;11.40;99.90;;;;;;5981971;24;20490;-63
2023/06/15 03:32:04;;;;;;;106.50;102.70;;;11.30;99.90;;;;;;5983776;24;20425;-63
2023/06/15 03:34:31;;;;;;;98.33;94.33;;;11.30;99.90;;;;;;5983532;24;20465;-63
2023/06/15 03:36:58;;;;;;;128.67;123.87;;;11.30;99.90;;;;;;5983838;24;20728;-63
2023/06/15 03:39:25;;;;;;;125.40;120.80;;;11.30;99.90;;;;;;5983882;24;20424;-63
2023/06/15 03:41:52;;;;;;;124.30;119.43;;;11.40;99.90;;;;;;5983418;24;21001;-63
2023/06/15 03:44:21;;;;;;;136.23;131.33;;;11.40;99.90;;;;;;5983360;24;20421;-63
2023/06/15 03:46:47;;;;;;;146.87;141.70;;;11.40;99.90;;;;;;5983687;24;20954;-65
2023/06/15 03:49:14;;;;;;;181.90;175.80;;;11.40;99.90;;;;;;5983299;24;20429;-63
2023/06/15 03:51:41;;;;;;;167.60;161.87;;;11.50;99.90;;;;;;5983998;24;20750;-63
2023/06/15 03:54:08;;;;;;;145.37;139.83;;;11.50;99.90;;;;;;5982826;24;20919;-63
2023/06/15 03:56:36;;;;;;;139.10;133.93;;;11.50;99.90;;;;;;5983974;24;20416;-63
2023/06/15 03:59:02;;;;;;;117.30;113.00;;;11.50;99.90;;;;;;5983644;24;20501;-63
2023/06/15 04:01:32;;;;;;;133.13;127.83;;;11.50;99.90;;;;;;5983518;24;20464;-63
2023/06/15 04:03:59;;;;;;;119.70;115.40;;;11.60;99.90;;;;;;5982895;24;20929;-64
2023/06/15 04:06:26;;;;;;;110.23;106.07;;;11.70;99.90;;;;;;5983301;24;20447;-63
2023/06/15 04:08:53;;;;;;;105.57;101.43;;;11.70;99.90;;;;;;5982907;24;20437;-63
2023/06/15 04:11:20;;;;;;;137.70;132.70;;;11.80;99.90;;;;;;5983007;24;20422;-63
2023/06/15 04:13:47;;;;;;;132.43;127.83;;;11.80;99.90;;;;;;5982570;24;20424;-64
2023/06/15 04:16:14;;;;;;;114.73;110.53;;;11.90;99.90;;;;;;5982490;24;20521;-64
2023/06/15 04:18:42;;;;;;;118.80;114.30;;;12.00;99.90;;;;;;5983369;24;20502;-64
2023/06/15 04:21:09;;;;;;;139.00;134.00;;;12.00;99.90;;;;;;5983584;24;20505;-64
2023/06/15 04:23:36;;;;;;;155.30;149.47;;;12.10;99.90;;;;;;5982921;24;20504;-64
2023/06/15 04:26:03;;;;;;;131.73;126.93;;;12.20;99.90;;;;;;5981864;24;20437;-64
2023/06/15 04:28:31;;;;;;;166.33;158.83;;;12.20;99.90;;;;;;5983110;24;20453;-64
2023/06/15 04:31:07;;;;;;;111.90;107.63;;;12.30;99.90;;;;;;5983704;24;20421;-64
2023/06/15 04:33:36;;;;;;;77.13;74.23;;;12.50;99.90;;;;;;5982963;24;20412;-64
2023/06/15 04:36:04;;;;;;;82.63;79.43;;;12.50;99.90;;;;;;5983534;24;20422;-63
2023/06/15 04:38:31;;;;;;;61.93;59.03;;;12.60;99.90;;;;;;5982571;24;20426;-64
2023/06/15 04:40:59;;;;;;;59.30;56.73;;;12.70;99.90;;;;;;5983005;24;20519;-64
2023/06/15 04:43:26;;;;;;;55.53;53.00;;;12.80;99.90;;;;;;5982582;24;20492;-64
2023/06/15 04:45:53;;;;;;;98.27;94.47;;;12.80;99.90;;;;;;5983351;24;20506;-64
2023/06/15 04:48:20;;;;;;;57.13;54.73;;;12.90;99.90;;;;;;5982875;24;20422;-64
2023/06/15 04:50:48;;;;;;;38.60;36.67;;;13.00;99.90;;;;;;5983583;24;20433;-64
2023/06/15 04:53:18;;;;;;;68.30;65.50;;;13.10;99.90;;;;;;5982558;24;20505;-64
2023/06/15 04:55:45;;;;;;;76.37;73.37;;;13.30;99.90;;;;;;5983628;24;20419;-64
2023/06/15 04:58:13;;;;;;;89.03;85.67;;;13.40;99.90;;;;;;5983224;24;20420;-64
2023/06/15 05:00:40;;;;;;;122.07;117.80;;;13.50;99.90;;;;;;5983481;24;20449;-63
2023/06/15 05:03:08;;;;;;;113.27;108.97;;;13.60;99.90;;;;;;5982513;24;20804;-64
2023/06/15 05:05:35;;;;;;;32.73;31.03;;;13.70;99.90;;;;;;5983425;24;20923;-64
2023/06/15 05:08:02;;;;;;;9.67;8.10;;;13.80;99.90;;;;;;5983112;24;20498;-64
2023/06/15 05:10:31;;;;;;;12.13;8.50;;;14.00;99.90;;;;;;5983467;24;20498;-64
2023/06/15 05:12:58;;;;;;;12.07;10.97;;;14.20;99.90;;;;;;5982871;24;20495;-64
2023/06/15 05:15:25;;;;;;;15.67;14.47;;;14.30;99.90;;;;;;5983016;24;20988;-64
2023/06/15 05:17:52;;;;;;;14.33;13.27;;;14.60;99.90;;;;;;5983067;24;20502;-64
2023/06/15 05:20:20;;;;;;;13.13;6.87;;;15.00;99.90;;;;;;5983332;24;20425;-64
2023/06/15 05:22:47;;;;;;;9.73;5.97;;;15.50;99.90;;;;;;5982943;24;20420;-64
2023/06/15 05:25:14;;;;;;;7.00;4.33;;;16.10;99.90;;;;;;5982699;24;20466;-64
2023/06/15 05:27:42;;;;;;;7.40;4.63;;;16.50;89.10;;;;;;5981172;24;20447;-63
2023/06/15 05:30:11;;;;;;;7.47;4.73;;;17.20;90.50;;;;;;5982868;24;20419;-64
2023/06/15 05:32:39;;;;;;;7.67;4.30;;;17.80;85.60;;;;;;5983415;24;20724;-64
2023/06/15 05:35:07;;;;;;;8.33;4.57;;;18.20;78.30;;;;;;5982136;24;20928;-64
2023/06/15 05:37:34;;;;;;;7.70;4.40;;;18.70;77.00;;;;;;5982644;24;20911;-64
2023/06/15 05:40:01;;;;;;;7.17;4.00;;;19.30;69.50;;;;;;5982521;24;20420;-63
2023/06/15 05:42:28;;;;;;;6.43;3.70;;;20.10;67.20;;;;;;5982102;24;20423;-63
2023/06/15 05:44:57;;;;;;;8.83;3.90;;;20.50;64.30;;;;;;5982386;24;20454;-64
2023/06/15 05:47:24;;;;;;;10.73;3.70;;;20.90;62.70;;;;;;5982286;24;20440;-64
2023/06/15 05:49:51;;;;;;;7.53;3.50;;;21.30;49.50;;;;;;5982437;24;20748;-64
2023/06/15 05:52:19;;;;;;;6.53;3.63;;;21.60;46.00;;;;;;5982735;24;20426;-64
2023/06/15 05:54:46;;;;;;;10.17;3.87;;;22.10;50.30;;;;;;5981389;24;20896;-64
2023/06/15 05:57:14;;;;;;;9.37;3.80;;;22.50;46.70;;;;;;5982343;24;20469;-64
2023/06/15 05:59:41;;;;;;;8.47;4.00;;;22.90;42.70;;;;;;5981030;24;20419;-64
2023/06/15 06:02:09;;;;;;;7.63;3.87;;;23.20;36.00;;;;;;5982700;24;20424;-64
2023/06/15 06:04:36;;;;;;;11.77;4.07;;;23.60;29.60;;;;;;5981490;24;20476;-64
2023/06/15 06:07:06;;;;;;;9.13;4.50;;;23.60;24.40;;;;;;5982580;24;20968;-63
2023/06/15 06:09:33;;;;;;;6.87;3.60;;;23.60;22.30;;;;;;5981346;24;20447;-63
2023/06/15 06:12:01;;;;;;;7.40;3.83;;;23.70;19.30;;;;;;5983076;24;20733;-64
2023/06/15 06:14:28;;;;;;;8.70;3.57;;;23.70;20.40;;;;;;5981873;24;20484;-63
2023/06/15 06:16:55;;;;;;;8.80;3.63;;;23.70;19.70;;;;;;5982500;24;20498;-63
2023/06/15 06:19:24;;;;;;;9.83;3.10;;;23.90;23.60;;;;;;5982541;24;20512;-63
2023/06/15 06:21:51;;;;;;;8.63;3.70;;;24.20;22.70;;;;;;5983095;24;20518;-63
2023/06/15 06:24:18;;;;;;;6.33;3.63;;;24.20;15.20;;;;;;5981832;24;20427;-63
2023/06/15 06:26:45;;;;;;;5.90;3.43;;;24.30;16.30;;;;;;5981933;24;20478;-63
2023/06/15 06:29:12;;;;;;;8.38;4.10;;;24.30;15.30;;;;;;5982815;24;20422;-63
2023/06/15 06:31:38;;;;;;;7.63;4.10;;;24.50;12.90;;;;;;5984107;24;20181;-64
2023/06/15 06:34:05;;;;;;;6.50;3.80;;;24.70;12.30;;;;;;5983995;24;20402;-63
2023/06/15 06:36:34;;;;;;;8.73;3.50;;;24.80;8.80;;;;;;5982869;24;20439;-63
2023/06/15 06:39:01;;;;;;;7.63;3.33;;;24.80;9.30;;;;;;5982572;24;20718;-63
2023/06/15 06:41:27;;;;;;;8.97;3.33;;;25.00;12.60;;;;;;5982620;24;20423;-63
2023/06/15 06:43:54;;;;;;;10.07;3.03;;;25.00;7.30;;;;;;5981257;24;20799;-64
2023/06/15 06:46:22;;;;;;;8.90;2.83;;;25.10;8.20;;;;;;5980241;24;20474;-63
2023/06/15 06:48:50;;;;;;;7.43;3.17;;;25.10;8.20;;;;;;5981286;24;20442;-63
2023/06/15 06:51:17;;;;;;;6.23;3.50;;;25.10;5.50;;;;;;5981083;24;20429;-63
2023/06/15 06:53:45;;;;;;;7.40;3.43;;;25.30;4.50;;;;;;5980969;24;20510;-63
2023/06/15 06:56:12;;;;;;;12.10;3.30;;;25.50;3.00;;;;;;5980756;24;20458;-63
2023/06/15 06:58:39;;;;;;;6.57;3.20;;;25.70;2.70;;;;;;5980439;24;20400;-63
2023/06/15 07:01:06;;;;;;;8.00;3.80;;;25.90;4.10;;;;;;5981296;24;20499;-63
2023/06/15 07:03:33;;;;;;;9.53;3.47;;;25.90;1.00;;;;;;5980646;24;20420;-63
2023/06/15 07:06:00;;;;;;;8.43;3.27;;;26.10;2.60;;;;;;5981286;24;20446;-64
2023/06/15 07:08:27;;;;;;;7.17;3.20;;;26.20;1.00;;;;;;5980683;24;20420;-63
2023/06/15 07:10:55;;;;;;;6.50;3.03;;;26.10;1.00;;;;;;5981005;24;20451;-63
2023/06/15 07:13:22;;;;;;;8.30;3.93;;;25.90;1.00;;;;;;5980907;24;20452;-64
2023/06/15 07:15:54;;;;;;;8.70;3.60;;;25.70;1.00;;;;;;5981382;24;20420;-63
2023/06/15 07:18:21;;;;;;;8.40;4.10;;;25.60;1.00;;;;;;5980939;24;20781;-63
2023/06/15 07:20:53;;;;;;;6.17;3.13;;;25.80;1.00;;;;;;5980697;24;20419;-63
2023/06/15 07:23:21;;;;;;;6.73;3.60;;;25.90;1.00;;;;;;5980237;24;20406;-63
2023/06/15 07:25:48;;;;;;;7.20;3.93;;;26.10;1.00;;;;;;5980856;24;20794;-63
2023/06/15 07:28:16;;;;;;;6.80;3.40;;;26.00;1.00;;;;;;5981408;24;20504;-63
2023/06/15 07:30:44;;;;;;;7.47;2.87;;;26.10;1.00;;;;;;5980921;24;20394;-63
2023/06/15 07:33:11;;;;;;;8.97;3.73;;;26.10;1.00;;;;;;5979315;24;20430;-63
2023/06/15 07:35:39;;;;;;;7.57;3.83;;;26.10;1.00;;;;;;5981861;24;20419;-63
2023/06/15 07:38:06;;;;;;;7.90;4.10;;;26.50;1.00;;;;;;5981002;24;20902;-65
2023/06/15 07:40:33;;;;;;;8.40;4.00;;;26.60;1.00;;;;;;5981714;24;20481;-66
2023/06/15 07:42:59;;;;;;;7.90;3.60;;;26.60;1.00;;;;;;5981211;24;20412;-66
2023/06/15 07:45:28;;;;;;;8.77;3.77;;;26.60;1.00;;;;;;5981463;24;20176;-66
2023/06/15 07:47:54;;;;;;;8.80;3.53;;;26.90;1.00;;;;;;5982104;24;20532;-66
2023/06/15 07:50:21;;;;;;;8.90;4.10;;;26.90;1.00;;;;;;5982123;24;20395;-66
2023/06/15 07:52:51;;;;;;;9.67;3.83;;;26.80;1.00;;;;;;5981827;24;20689;-66
2023/06/15 07:55:18;;;;;;;10.43;4.07;;;27.00;1.00;;;;;;5982407;24;20748;-66
2023/06/15 07:57:45;;;;;;;8.03;3.20;;;26.90;1.00;;;;;;5981642;24;20425;-66
2023/06/15 08:00:13;;;;;;;6.77;3.57;;;27.10;1.00;;;;;;5981898;24;20507;-66
2023/06/15 08:02:41;;;;;;;8.33;3.57;;;27.40;1.00;;;;;;5982409;24;20419;-66
2023/06/15 08:05:09;;;;;;;10.33;2.70;;;27.10;1.00;;;;;;5981786;24;20799;-66
2023/06/15 08:07:36;;;;;;;6.80;3.10;;;27.40;1.00;;;;;;5981756;24;20447;-66
2023/06/15 08:10:03;;;;;;;7.10;3.10;;;27.00;1.00;;;;;;5982526;24;20396;-66
2023/06/15 08:12:30;;;;;;;7.90;3.70;;;27.60;1.00;;;;;;5981874;24;20502;-66
2023/06/15 08:14:57;;;;;;;6.43;3.27;;;27.80;1.00;;;;;;5981420;24;20397;-66
2023/06/15 08:17:25;;;;;;;6.47;3.37;;;27.70;1.00;;;;;;5983083;24;20998;-66
2023/06/15 08:19:53;;;;;;;6.40;3.27;;;27.70;1.00;;;;;;5983170;24;20421;-67
2023/06/15 08:22:20;;;;;;;7.33;3.70;;;28.10;1.00;;;;;;5983699;24;20405;-66
2023/06/15 08:24:47;;;;;;;7.40;3.07;;;28.10;1.00;;;;;;5983044;24;20430;-66
2023/06/15 08:27:14;;;;;;;9.30;3.87;;;28.10;1.00;;;;;;5983506;24;20418;-66
2023/06/15 08:29:44;;;;;;;6.43;3.50;;;28.10;1.00;;;;;;5983729;24;20432;-66
2023/06/15 08:32:13;;;;;;;10.37;3.50;;;28.40;1.00;;;;;;5983536;24;20422;-66
2023/06/15 08:34:41;;;;;;;7.37;3.20;;;28.30;1.00;;;;;;5982998;24;20419;-67
2023/06/15 08:37:11;;;;;;;10.00;3.47;;;28.30;1.00;;;;;;5983886;24;20910;-66
2023/06/15 08:39:38;;;;;;;6.80;3.50;;;28.30;1.00;;;;;;5983908;24;20957;-66
2023/06/15 08:42:05;;;;;;;7.73;3.70;;;28.20;1.00;;;;;;5983798;24;20422;-66
2023/06/15 08:44:33;;;;;;;8.83;3.50;;;28.80;1.00;;;;;;5982813;24;20494;-66
2023/06/15 08:47:01;;;;;;;6.47;3.07;;;29.00;1.00;;;;;;5983331;24;20439;-67
2023/06/15 08:49:30;;;;;;;7.70;3.10;;;29.10;1.00;;;;;;5983567;24;20419;-66
2023/06/15 08:51:58;;;;;;;12.53;3.90;;;28.90;1.00;;;;;;5983557;24;20419;-67
2023/06/15 08:54:28;;;;;;;12.87;3.37;;;29.10;1.00;;;;;;5982770;24;20481;-67
2023/06/15 08:56:55;;;;;;;7.60;3.17;;;28.90;1.00;;;;;;5983669;24;20419;-67
2023/06/15 08:59:22;;;;;;;7.67;3.20;;;29.00;1.00;;;;;;5983400;24;20394;-67
2023/06/15 09:01:51;;;;;;;6.77;3.67;;;29.60;1.00;;;;;;5983092;24;20486;-64
2023/06/15 09:04:19;;;;;;;6.33;3.40;;;30.20;1.00;;;;;;5984478;24;20394;-63
2023/06/15 09:06:46;;;;;;;9.63;3.70;;;30.20;1.00;;;;;;5982354;24;20510;-63
2023/06/15 09:09:14;;;;;;;8.73;3.40;;;30.60;1.00;;;;;;5982707;24;20395;-64
2023/06/15 09:11:44;;;;;;;10.50;3.90;;;30.60;1.00;;;;;;5982578;24;20445;-64
2023/06/15 09:14:12;;;;;;;9.13;4.10;;;30.60;1.00;;;;;;5982211;24;20410;-63
2023/06/15 09:16:39;;;;;;;10.10;2.80;;;30.90;1.00;;;;;;5982730;24;21024;-64
2023/06/15 09:19:11;;;;;;;8.50;3.43;;;31.00;1.00;;;;;;5982225;24;20455;-65
2023/06/15 09:21:42;;;;;;;7.20;3.63;;;31.00;1.00;;;;;;5982080;24;20719;-63
2023/06/15 09:24:09;;;;;;;8.87;3.27;;;30.60;1.00;;;;;;5982031;24;20427;-63
2023/06/15 09:26:39;;;;;;;8.53;3.77;;;30.30;1.00;;;;;;5981730;24;21011;-63
2023/06/15 09:29:12;;;;;;;12.03;3.80;;;29.80;1.00;;;;;;5981019;24;20411;-63
2023/06/15 09:31:40;;;;;;;7.93;4.00;;;29.80;1.00;;;;;;5981985;24;20456;-63
2023/06/15 09:34:09;;;;;;;8.03;3.80;;;30.20;1.00;;;;;;5981560;24;20916;-63
2023/06/15 09:36:39;;;;;;;10.03;3.87;;;29.90;1.00;;;;;;5982175;24;20400;-63
2023/06/15 09:39:09;;;;;;;8.27;4.53;;;30.00;1.00;;;;;;5982155;24;20779;-62
2023/06/15 09:41:36;;;;;;;11.30;3.90;;;28.90;1.00;;;;;;5982084;24;20476;-62
2023/06/15 09:44:06;;;;;;;7.73;3.60;;;27.80;1.00;;;;;;5981697;24;20720;-63
2023/06/15 09:46:36;;;;;;;7.20;3.60;;;27.80;1.00;;;;;;5982379;24;20497;-63
2023/06/15 09:49:03;;;;;;;7.37;3.27;;;29.10;1.00;;;;;;5982018;24;20480;-63
2023/06/15 09:51:35;;;;;;;13.40;4.10;;;30.50;1.00;;;;;;5982074;24;20456;-63
2023/06/15 09:54:04;;;;;;;12.50;4.17;;;31.60;1.00;;;;;;5981784;24;20404;-63
2023/06/15 09:56:33;;;;;;;8.33;3.77;;;31.90;1.00;;;;;;5982307;24;20423;-65
2023/06/15 09:59:02;;;;;;;7.10;4.10;;;33.00;1.00;;;;;;5982129;24;20419;-64
2023/06/15 10:01:33;;;;;;;7.50;3.97;;;33.50;1.00;;;;;;5981409;24;20423;-65
2023/06/15 10:04:03;;;;;;;6.90;3.90;;;33.50;1.00;;;;;;5981375;24;20443;-65
2023/06/15 10:06:33;;;;;;;13.17;3.53;;;33.60;1.00;;;;;;5982085;24;20947;-66
2023/06/15 10:09:02;;;;;;;6.77;3.57;;;34.10;1.00;;;;;;5981925;24;20440;-65
2023/06/15 10:11:30;;;;;;;7.47;3.30;;;34.60;1.00;;;;;;5982178;24;20711;-65
2023/06/15 10:14:05;;;;;;;9.80;3.43;;;35.20;1.00;;;;;;5981634;24;20484;-65
2023/06/15 10:16:33;;;;;;;9.27;3.87;;;34.20;1.00;;;;;;5982307;24;20459;-65
2023/06/15 10:19:05;;;;;;;9.13;3.97;;;33.10;1.00;;;;;;5981946;24;20419;-63
2023/06/15 10:21:36;;;;;;;8.07;4.00;;;30.70;1.00;;;;;;5981735;24;20404;-65
2023/06/15 10:24:11;;;;;;;8.07;3.90;;;28.80;1.00;;;;;;5935849;24;1115618;-64
2023/06/15 10:26:39;;;;;;;6.93;3.47;;;27.30;1.00;;;;;;5983229;24;20244;-64
2023/06/15 10:29:13;;;;;;;10.73;3.77;;;26.90;1.00;;;;;;5982609;24;20456;-64
2023/06/15 10:31:46;;;;;;;7.50;4.00;;;26.90;1.00;;;;;;5983215;24;20747;-64
2023/06/15 10:34:23;;;;;;;8.07;4.00;;;27.10;1.00;;;;;;5982120;24;20413;-65
2023/06/15 10:37:02;;;;;;;8.50;4.40;;;27.50;1.00;;;;;;5982963;24;20405;-64
2023/06/15 10:39:36;;;;;;;9.83;3.73;;;27.40;1.00;;;;;;5982856;24;20404;-64
2023/06/15 10:42:07;;;;;;;7.00;3.53;;;28.40;1.00;;;;;;5982940;24;20405;-64
2023/06/15 10:44:34;;;;;;;8.67;3.80;;;29.20;1.00;;;;;;5981057;24;20723;-64
2023/06/15 10:47:08;;;;;;;7.93;4.37;;;30.00;1.00;;;;;;5981513;24;20476;-64
2023/06/15 10:49:37;;;;;;;9.17;4.03;;;30.90;1.00;;;;;;5981391;24;21040;-64
2023/06/15 10:52:05;;;;;;;9.13;3.90;;;30.50;1.00;;;;;;5982509;24;20426;-64
2023/06/15 10:54:32;;;;;;;8.40;4.27;;;29.50;1.00;;;;;;5982238;24;20459;-64
2023/06/15 10:56:59;;;;;;;9.53;3.80;;;28.20;1.00;;;;;;5982952;24;20419;-64
2023/06/15 10:59:39;;;;;;;9.47;4.17;;;26.90;1.00;;;;;;5982920;24;20419;-63
2023/06/15 11:02:43;;;;;;;8.20;4.20;;;26.40;1.00;;;;;;5982728;24;20496;-64
2023/06/15 11:05:14;;;;;;;13.73;5.20;;;26.10;1.00;;;;;;5982742;24;20792;-64
2023/06/15 11:07:44;;;;;;;6.37;3.60;;;26.80;1.00;;;;;;5982789;24;20429;-63
2023/06/15 11:10:13;;;;;;;9.60;4.33;;;26.90;1.00;;;;;;5982571;24;20797;-64
2023/06/15 11:12:42;;;;;;;7.30;4.37;;;27.20;1.00;;;;;;5982792;24;20420;-64
2023/06/15 11:15:13;;;;;;;10.07;4.07;;;27.20;1.00;;;;;;5991161;24;20416;-64
2023/06/15 11:17:57;;;;;;;7.97;4.30;;;27.40;1.00;;;;;;5982753;24;20780;-64
2023/06/15 11:21:00;;;;;;;7.57;4.10;;;27.00;1.00;;;;;;5982700;24;20484;-64
2023/06/15 11:23:31;;;;;;;6.80;3.40;;;26.80;1.00;;;;;;5982273;24;20426;-64
2023/06/15 11:26:01;;;;;;;8.70;4.00;;;26.90;1.00;;;;;;5982995;24;20483;-64
2023/06/15 11:28:33;;;;;;;11.03;4.20;;;27.40;1.00;;;;;;5982733;24;20448;-64
2023/06/15 11:31:01;;;;;;;7.13;3.93;;;28.50;1.00;;;;;;5982928;24;20404;-64
2023/06/15 11:33:30;;;;;;;8.90;3.80;;;29.50;1.00;;;;;;5982105;24;20473;-63
2023/06/15 11:35:59;;;;;;;9.43;3.83;;;30.00;1.00;;;;;;5982792;24;20484;-64
2023/06/15 11:38:28;;;;;;;8.20;3.50;;;31.30;1.00;;;;;;5982539;24;20398;-64
2023/06/15 11:41:02;;;;;;;10.77;3.87;;;32.20;1.00;;;;;;5982889;24;20443;-64
2023/06/15 11:43:40;;;;;;;8.83;4.07;;;33.00;1.00;;;;;;5982028;24;20428;-64
2023/06/15 11:46:11;;;;;;;7.87;3.60;;;34.20;1.00;;;;;;5982492;24;20414;-64
2023/06/15 11:48:38;;;;;;;7.40;3.93;;;33.60;1.00;;;;;;5982316;24;20406;-64
2023/06/15 11:51:08;;;;;;;7.30;3.50;;;34.40;1.00;;;;;;5983113;24;20453;-64
2023/06/15 11:53:40;;;;;;;9.23;3.10;;;34.90;1.00;;;;;;5983947;24;20423;-64
2023/06/15 11:56:08;;;;;;;7.73;3.60;;;35.70;1.00;;;;;;5984651;24;20407;-65
2023/06/15 11:58:35;;;;;;;7.50;3.37;;;36.30;1.00;;;;;;5984057;24;20795;-64
2023/06/15 12:01:04;;;;;;;8.57;4.80;;;37.20;1.00;;;;;;5984553;24;20429;-64
2023/06/15 12:03:37;;;;;;;7.20;3.67;;;35.10;1.00;;;;;;5984216;24;20427;-65
2023/06/15 12:06:04;;;;;;;8.10;3.10;;;35.00;1.00;;;;;;5984717;24;20429;-65
2023/06/15 12:08:32;;;;;;;8.27;4.03;;;36.00;1.00;;;;;;5984243;24;20763;-64
2023/06/15 12:11:01;;;;;;;6.40;3.57;;;33.70;1.00;;;;;;5984482;24;20394;-63
2023/06/15 12:13:27;;;;;;;6.70;3.10;;;32.20;1.00;;;;;;5983673;24;20863;-64
2023/06/15 12:15:55;;;;;;;8.37;4.33;;;30.00;1.00;;;;;;5984643;24;20746;-64
2023/06/15 12:18:26;;;;;;;9.37;3.30;;;30.20;1.00;;;;;;5983972;24;20520;-63
2023/06/15 12:20:53;;;;;;;6.93;3.80;;;30.60;1.00;;;;;;5984447;24;20454;-64
2023/06/15 12:23:26;;;;;;;9.93;3.20;;;30.50;1.00;;;;;;5983986;24;20779;-64
2023/06/15 12:25:56;;;;;;;10.27;3.60;;;29.10;1.00;;;;;;5983724;24;20445;-64
2023/06/15 12:28:25;;;;;;;8.07;4.17;;;28.30;1.00;;;;;;5983833;24;20390;-64
2023/06/15 12:30:57;;;;;;;7.40;3.23;;;27.80;1.00;;;;;;5984320;24;20697;-64
2023/06/15 12:33:30;;;;;;;13.63;4.93;;;27.90;1.00;;;;;;5983498;24;20414;-64
2023/06/15 12:35:58;;;;;;;10.20;4.20;;;29.30;1.00;;;;;;5983890;24;20419;-63
2023/06/15 12:38:26;;;;;;;9.10;3.47;;;30.40;1.00;;;;;;5984141;24;20439;-63
2023/06/15 12:40:53;;;;;;;15.40;4.17;;;30.90;1.00;;;;;;5983490;24;20394;-64
2023/06/15 12:43:21;;;;;;;8.23;4.00;;;30.50;1.00;;;;;;5981103;24;20402;-63
2023/06/15 12:45:50;;;;;;;9.50;3.60;;;31.20;1.00;;;;;;5983166;24;20773;-63
2023/06/15 12:48:17;;;;;;;8.00;3.87;;;31.20;1.00;;;;;;5982635;24;20987;-64
2023/06/15 12:50:45;;;;;;;12.20;4.27;;;30.10;1.00;;;;;;5982733;24;20423;-64